Time;durP1;ratioP1;P1;durP2;ratioP2;P2;SDS_P1;SDS_P2;PMS_P1;PMS_P2;Temp;Humidity;BMP_temperature;BMP_pressure;BME280_temperature;BME280_humidity;BME280_pressure;Samples;Min_cycle;Max_cycle;Signal;HPM_P1;HPM_P2
2022/05/05 00:01:53;;;;;;;9.20;3.88;;;9.90;99.90;;;;;;5057792;28;20603;-71
2022/05/05 00:04:21;;;;;;;11.07;3.83;;;9.80;99.90;;;;;;5058086;28;20041;-72
2022/05/05 00:06:50;;;;;;;10.80;4.25;;;9.80;99.90;;;;;;5056584;28;20155;-71
2022/05/05 00:09:15;;;;;;;12.77;3.92;;;9.80;99.90;;;;;;5054606;28;20044;-70
2022/05/05 00:14:31;;;;;;;9.63;3.75;;;9.80;99.90;;;;;;5054434;28;20044;-70
2022/05/05 00:17:08;;;;;;;10.98;3.63;;;9.80;99.90;;;;;;5054487;28;20529;-70
2022/05/05 00:19:37;;;;;;;12.90;4.45;;;9.80;99.90;;;;;;5038085;28;20048;-70
2022/05/05 00:22:05;;;;;;;13.23;4.07;;;9.70;99.90;;;;;;5054345;28;20511;-71
2022/05/05 00:24:31;;;;;;;8.60;3.47;;;9.70;99.90;;;;;;5037721;28;20130;-71
2022/05/05 00:26:57;;;;;;;9.65;3.88;;;9.70;99.90;;;;;;5054494;28;20048;-70
2022/05/05 00:29:23;;;;;;;12.57;4.05;;;9.70;99.90;;;;;;5054254;28;20049;-70
2022/05/05 00:31:49;;;;;;;10.98;3.10;;;9.70;99.90;;;;;;5054216;28;20588;-71
2022/05/05 00:34:15;;;;;;;10.55;3.40;;;9.70;99.90;;;;;;5054057;28;20493;-71
2022/05/05 00:36:42;;;;;;;10.95;3.85;;;9.70;99.90;;;;;;5053971;28;20099;-71
2022/05/05 00:39:08;;;;;;;12.35;4.00;;;9.70;99.90;;;;;;5054046;28;20029;-71
2022/05/05 00:41:39;;;;;;;12.38;3.85;;;9.70;99.90;;;;;;5053999;28;20452;-71
2022/05/05 00:44:06;;;;;;;8.55;3.60;;;9.70;99.90;;;;;;5054014;28;20052;-71
2022/05/05 00:46:33;;;;;;;5.38;3.10;;;9.60;99.90;;;;;;5053849;28;20041;-70
2022/05/05 00:49:00;;;;;;;10.68;3.78;;;9.60;99.90;;;;;;5054105;28;20041;-70
2022/05/05 00:51:26;;;;;;;13.35;3.67;;;9.50;99.90;;;;;;5037193;28;20041;-70
2022/05/05 00:53:52;;;;;;;10.90;3.75;;;9.50;99.90;;;;;;5037188;28;20041;-71
2022/05/05 00:56:18;;;;;;;11.82;3.60;;;9.50;99.90;;;;;;5037415;28;20033;-71
2022/05/05 00:58:45;;;;;;;11.30;3.67;;;9.50;99.90;;;;;;5037054;28;20041;-71
2022/05/05 01:01:14;;;;;;;12.32;3.70;;;9.50;99.90;;;;;;5036947;28;20419;-70
2022/05/05 01:03:40;;;;;;;8.18;3.33;;;9.40;99.90;;;;;;5053615;28;20044;-70
2022/05/05 01:06:06;;;;;;;11.20;3.72;;;9.40;99.90;;;;;;5053307;28;20167;-70
2022/05/05 01:08:36;;;;;;;14.68;4.03;;;9.50;99.90;;;;;;5054121;28;20033;-71
2022/05/05 01:11:02;;;;;;;8.90;3.30;;;9.50;99.90;;;;;;5053706;28;20131;-71
2022/05/05 01:13:29;;;;;;;12.23;3.55;;;9.40;99.90;;;;;;5053378;28;20112;-71
2022/05/05 01:15:56;;;;;;;8.10;3.53;;;9.40;99.90;;;;;;5036732;28;20039;-70
2022/05/05 01:18:22;;;;;;;9.25;3.33;;;9.40;99.90;;;;;;5052500;28;20048;-70
2022/05/05 01:20:49;;;;;;;8.32;3.47;;;9.40;99.90;;;;;;5053217;28;20041;-70
2022/05/05 01:23:16;;;;;;;8.88;3.42;;;9.40;99.90;;;;;;5054059;28;20397;-71
2022/05/05 01:28:28;;;;;;;9.52;3.35;;;9.30;99.90;;;;;;5053114;28;20045;-70
2022/05/05 01:30:54;;;;;;;6.82;3.22;;;9.30;99.90;;;;;;5053120;28;20048;-70
2022/05/05 01:33:25;;;;;;;11.57;3.80;;;9.30;99.90;;;;;;5052934;28;20041;-70
2022/05/05 01:35:55;;;;;;;11.25;3.80;;;9.30;99.90;;;;;;5052920;28;20385;-70
2022/05/05 01:38:23;;;;;;;9.32;3.85;;;9.30;99.90;;;;;;5052984;28;20037;-70
2022/05/05 01:40:48;;;;;;;9.32;3.47;;;9.30;99.90;;;;;;5053194;28;20052;-70
2022/05/05 01:43:19;;;;;;;10.57;4.28;;;9.40;99.90;;;;;;5052833;28;20475;-70
2022/05/05 01:45:45;;;;;;;9.40;3.85;;;9.40;99.90;;;;;;5052726;28;20509;-71
2022/05/05 01:48:12;;;;;;;11.15;4.25;;;9.30;99.90;;;;;;5052715;28;20086;-71
2022/05/05 01:50:38;;;;;;;10.15;3.72;;;9.30;99.90;;;;;;5052988;28;20053;-71
2022/05/05 01:53:05;;;;;;;9.70;4.22;;;9.30;99.90;;;;;;5052768;28;20041;-71
2022/05/05 01:55:32;;;;;;;10.00;3.45;;;9.20;99.90;;;;;;5052799;28;20064;-71
2022/05/05 01:58:02;;;;;;;12.68;4.63;;;9.20;99.90;;;;;;5035960;28;20451;-71
2022/05/05 02:00:28;;;;;;;12.02;4.38;;;9.20;99.90;;;;;;5052600;28;20041;-70
2022/05/05 02:02:54;;;;;;;10.82;4.72;;;9.10;99.90;;;;;;5052483;28;20048;-70
2022/05/05 02:05:20;;;;;;;8.35;4.28;;;9.10;99.90;;;;;;5052640;28;20047;-71
2022/05/05 02:07:47;;;;;;;9.90;4.63;;;9.10;99.90;;;;;;5035966;28;20400;-71
2022/05/05 02:10:15;;;;;;;11.80;4.85;;;9.10;99.90;;;;;;5052351;28;20037;-70
2022/05/05 02:12:42;;;;;;;10.27;4.57;;;9.10;99.90;;;;;;5052226;28;20142;-70
2022/05/05 02:15:09;;;;;;;9.43;4.40;;;9.10;99.90;;;;;;5052289;28;20043;-70
2022/05/05 02:17:36;;;;;;;12.40;5.32;;;9.10;99.90;;;;;;5052393;28;20041;-70
2022/05/05 02:20:04;;;;;;;7.68;4.10;;;9.10;99.90;;;;;;5052206;28;20052;-71
2022/05/05 02:22:29;;;;;;;9.38;5.00;;;9.10;99.90;;;;;;5052135;28;20382;-70
2022/05/05 02:24:55;;;;;;;11.43;5.15;;;9.10;99.90;;;;;;5052060;28;20516;-70
2022/05/05 02:27:21;;;;;;;11.65;4.90;;;9.10;99.90;;;;;;5051992;28;20119;-71
2022/05/05 02:29:47;;;;;;;14.95;5.18;;;9.10;99.90;;;;;;5051920;28;20083;-71
2022/05/05 02:32:13;;;;;;;11.00;4.95;;;9.10;99.90;;;;;;5035418;28;20127;-71
2022/05/05 02:34:39;;;;;;;8.80;5.25;;;9.10;99.90;;;;;;5051902;28;20128;-71
2022/05/05 02:39:49;;;;;;;10.70;5.70;;;9.10;99.90;;;;;;5052151;28;20048;-71
2022/05/05 02:42:16;;;;;;;13.40;5.15;;;9.10;99.90;;;;;;5052148;28;20370;-71
2022/05/05 02:44:42;;;;;;;12.77;5.50;;;9.10;99.90;;;;;;5035228;28;20416;-70
2022/05/05 02:47:08;;;;;;;12.77;6.00;;;9.10;99.90;;;;;;5035130;28;20532;-71
2022/05/05 02:49:33;;;;;;;14.60;6.13;;;9.10;99.90;;;;;;5051771;28;20095;-71
2022/05/05 02:51:59;;;;;;;9.48;5.25;;;9.00;99.90;;;;;;5052046;28;20123;-70
2022/05/05 02:57:08;;;;;;;12.68;5.88;;;9.00;99.90;;;;;;5051685;28;20127;-70
2022/05/05 02:59:34;;;;;;;13.80;5.70;;;9.00;99.90;;;;;;5051650;28;20119;-71
2022/05/05 03:01:59;;;;;;;12.75;5.40;;;8.90;99.90;;;;;;5051638;28;20091;-70
2022/05/05 03:04:25;;;;;;;12.15;5.88;;;8.90;99.90;;;;;;5051629;28;20033;-70
2022/05/05 03:06:51;;;;;;;14.57;6.07;;;8.90;99.90;;;;;;5034881;28;20043;-70
2022/05/05 03:09:16;;;;;;;10.65;5.70;;;8.90;99.90;;;;;;5051839;28;20041;-71
2022/05/05 03:11:42;;;;;;;15.55;6.47;;;8.80;99.90;;;;;;5051545;28;20124;-71
2022/05/05 03:14:07;;;;;;;13.77;6.57;;;8.80;99.90;;;;;;5034885;28;20132;-71
2022/05/05 03:16:33;;;;;;;13.45;6.25;;;8.80;99.90;;;;;;5051480;28;20120;-70
2022/05/05 03:18:58;;;;;;;11.15;6.32;;;8.80;99.90;;;;;;5051509;28;20123;-70
2022/05/05 03:21:24;;;;;;;10.15;6.15;;;8.70;99.90;;;;;;5051566;28;20121;-70
2022/05/05 03:23:49;;;;;;;11.88;5.80;;;8.70;99.90;;;;;;5051466;28;20033;-70
2022/05/05 03:26:15;;;;;;;13.85;6.00;;;8.70;99.90;;;;;;5051414;28;20502;-70
2022/05/05 03:28:41;;;;;;;11.30;6.50;;;8.70;99.90;;;;;;5051426;28;20045;-71
2022/05/05 03:31:07;;;;;;;11.95;6.25;;;8.70;99.90;;;;;;5051440;28;20412;-71
2022/05/05 03:33:32;;;;;;;10.95;6.32;;;8.70;99.90;;;;;;5051533;28;20045;-71
2022/05/05 03:35:58;;;;;;;10.15;5.72;;;8.70;99.90;;;;;;5051286;28;20046;-71
2022/05/05 03:38:24;;;;;;;12.55;6.22;;;8.70;99.90;;;;;;5034688;28;20110;-71
2022/05/05 03:40:51;;;;;;;10.77;6.28;;;8.70;99.90;;;;;;5051610;28;20037;-70
2022/05/05 03:43:17;;;;;;;11.65;6.13;;;8.70;99.90;;;;;;5053927;28;20127;-71
2022/05/05 03:45:43;;;;;;;10.07;5.28;;;8.60;99.90;;;;;;5038464;28;20067;-71
2022/05/05 03:48:09;;;;;;;10.48;6.25;;;8.50;99.90;;;;;;5055033;28;20036;-71
2022/05/05 03:50:35;;;;;;;11.23;5.70;;;8.50;99.90;;;;;;5055025;28;20036;-71
2022/05/05 03:53:00;;;;;;;14.13;6.50;;;8.40;99.90;;;;;;5054925;28;20036;-71
2022/05/05 03:55:27;;;;;;;10.40;5.72;;;8.40;99.90;;;;;;5054814;28;20116;-71
2022/05/05 03:57:53;;;;;;;12.70;5.65;;;8.40;99.90;;;;;;5054846;28;20504;-71
2022/05/05 04:00:19;;;;;;;11.88;5.88;;;8.40;99.90;;;;;;5055037;28;20044;-70
2022/05/05 04:03:30;;;;;;;15.07;6.30;;;8.40;99.90;;;;;;5038234;28;20033;-70
2022/05/05 04:05:30;;;;;;;11.57;5.57;;;8.40;99.90;;;;;;5054399;28;20048;-70
2022/05/05 04:07:55;;;;;;;10.48;5.90;;;8.40;99.90;;;;;;5054646;28;20033;-71
2022/05/05 04:10:21;;;;;;;8.65;6.10;;;8.50;99.90;;;;;;5054559;28;20086;-71
2022/05/05 04:12:47;;;;;;;10.02;5.70;;;8.50;99.90;;;;;;5054474;28;20033;-71
2022/05/05 04:15:12;;;;;;;13.95;6.40;;;8.50;99.90;;;;;;5055324;28;20033;-71
2022/05/05 04:17:38;;;;;;;10.05;6.05;;;8.50;99.90;;;;;;5054389;28;20091;-71
2022/05/05 04:20:04;;;;;;;12.50;6.28;;;8.60;99.90;;;;;;5054446;28;20037;-70
2022/05/05 04:22:30;;;;;;;13.25;6.07;;;8.60;99.90;;;;;;5054621;28;20119;-70
2022/05/05 04:24:55;;;;;;;12.55;6.45;;;8.60;99.90;;;;;;5037982;28;20171;-71
2022/05/05 04:27:21;;;;;;;14.45;6.60;;;8.70;99.90;;;;;;5054473;28;20076;-71
2022/05/05 04:29:47;;;;;;;15.90;6.28;;;8.70;99.90;;;;;;5054507;28;20122;-71
2022/05/05 04:32:13;;;;;;;10.75;6.10;;;8.70;99.90;;;;;;5037648;28;20048;-71
2022/05/05 04:34:39;;;;;;;15.10;6.40;;;8.80;99.90;;;;;;5054093;28;20033;-71
2022/05/05 04:37:05;;;;;;;12.95;6.65;;;8.80;99.90;;;;;;5037492;28;20044;-71
2022/05/05 04:39:31;;;;;;;11.25;5.93;;;8.80;99.90;;;;;;5054044;28;20044;-71
2022/05/05 04:41:57;;;;;;;16.00;5.90;;;8.90;99.90;;;;;;5053990;28;20045;-70
2022/05/05 04:44:23;;;;;;;14.80;7.22;;;8.90;99.90;;;;;;5054028;28;20086;-71
2022/05/05 04:46:49;;;;;;;17.15;6.15;;;9.00;99.90;;;;;;5054105;28;20045;-71
2022/05/05 04:49:14;;;;;;;11.73;6.65;;;9.00;99.90;;;;;;5053876;28;20080;-71
2022/05/05 04:51:40;;;;;;;12.43;6.00;;;9.00;99.90;;;;;;5053807;28;20114;-71
2022/05/05 04:54:06;;;;;;;15.40;7.18;;;9.10;99.90;;;;;;5053443;28;20045;-71
2022/05/05 04:56:31;;;;;;;16.13;6.53;;;9.10;99.90;;;;;;5053654;28;20048;-71
2022/05/05 04:58:57;;;;;;;14.02;6.63;;;9.10;99.90;;;;;;5053684;28;20045;-71
2022/05/05 05:01:22;;;;;;;12.57;6.57;;;9.10;99.90;;;;;;5053684;28;20029;-71
2022/05/05 05:03:48;;;;;;;13.18;6.85;;;9.10;99.90;;;;;;5053585;28;20044;-71
2022/05/05 05:06:13;;;;;;;12.95;7.00;;;9.10;99.90;;;;;;5053332;28;20135;-71
2022/05/05 05:08:40;;;;;;;15.32;6.50;;;9.20;99.90;;;;;;5053557;28;20044;-71
2022/05/05 05:11:05;;;;;;;13.13;6.60;;;9.20;99.90;;;;;;5053501;28;20048;-71
2022/05/05 05:13:31;;;;;;;14.30;6.65;;;9.20;99.90;;;;;;5053356;28;20119;-71
2022/05/05 05:15:57;;;;;;;15.32;6.50;;;9.20;99.90;;;;;;5053350;28;20040;-71
2022/05/05 05:18:22;;;;;;;13.32;5.75;;;9.30;99.90;;;;;;5053421;28;20048;-71
2022/05/05 05:20:48;;;;;;;16.73;7.05;;;9.40;99.90;;;;;;5053333;28;20037;-71
2022/05/05 05:23:14;;;;;;;11.43;6.55;;;9.40;99.90;;;;;;5036629;28;20040;-71
2022/05/05 05:25:39;;;;;;;17.90;7.47;;;9.40;99.90;;;;;;5053111;28;20041;-71
2022/05/05 05:28:05;;;;;;;15.32;6.97;;;9.50;99.90;;;;;;5053212;28;20094;-71
2022/05/05 05:30:31;;;;;;;11.77;6.93;;;9.50;99.90;;;;;;5053087;28;20086;-71
2022/05/05 05:32:56;;;;;;;12.63;6.93;;;9.60;99.90;;;;;;5036354;28;20087;-70
2022/05/05 05:35:22;;;;;;;15.07;7.30;;;9.60;99.90;;;;;;5052927;28;20040;-71
2022/05/05 05:37:51;;;;;;;13.15;7.07;;;9.60;99.90;;;;;;5053206;28;20040;-71
2022/05/05 05:40:22;;;;;;;13.18;7.57;;;9.70;99.90;;;;;;5052943;28;20037;-71
2022/05/05 05:42:48;;;;;;;13.15;6.35;;;9.70;99.90;;;;;;5053121;28;20066;-71
2022/05/05 05:45:14;;;;;;;19.15;7.07;;;9.70;99.90;;;;;;5052771;28;20465;-71
2022/05/05 05:47:40;;;;;;;13.32;7.03;;;9.80;99.90;;;;;;5052736;28;20132;-71
2022/05/05 05:50:06;;;;;;;14.48;6.70;;;9.80;99.90;;;;;;5052739;28;20135;-71
2022/05/05 05:52:31;;;;;;;10.77;6.75;;;9.90;99.90;;;;;;5036268;28;20041;-71
2022/05/05 05:54:58;;;;;;;11.77;6.88;;;10.00;99.90;;;;;;5052637;28;20041;-71
2022/05/05 05:57:24;;;;;;;16.17;7.28;;;10.00;99.90;;;;;;5052556;28;20041;-71
2022/05/05 05:59:49;;;;;;;20.83;7.78;;;10.00;99.90;;;;;;5052631;28;20033;-71
2022/05/05 06:04:58;;;;;;;13.05;7.75;;;10.10;99.90;;;;;;5052170;28;20052;-71
2022/05/05 06:07:24;;;;;;;12.80;7.25;;;10.10;99.90;;;;;;5063184;22;20033;-70
2022/05/05 06:09:50;;;;;;;14.25;7.47;;;10.10;99.90;;;;;;5032471;28;20044;-70
2022/05/05 06:12:15;;;;;;;13.93;6.68;;;10.10;99.90;;;;;;5032464;28;20044;-70
2022/05/05 06:14:41;;;;;;;17.27;7.65;;;10.10;99.90;;;;;;5032356;28;20046;-70
2022/05/05 06:17:06;;;;;;;15.68;7.38;;;10.10;99.90;;;;;;5032330;28;20421;-70
2022/05/05 06:19:32;;;;;;;16.70;7.10;;;10.10;99.90;;;;;;5032350;28;20095;-70
2022/05/05 06:21:57;;;;;;;12.32;6.88;;;10.20;99.90;;;;;;5032813;28;20049;-70
2022/05/05 06:24:23;;;;;;;20.08;7.65;;;10.20;99.90;;;;;;5032554;28;20127;-70
2022/05/05 06:26:49;;;;;;;14.55;7.40;;;10.30;99.90;;;;;;5015648;28;20607;-71
2022/05/05 06:29:14;;;;;;;17.63;7.97;;;10.40;99.90;;;;;;5032250;28;20119;-70
2022/05/05 06:31:40;;;;;;;16.02;7.45;;;10.50;99.90;;;;;;5016260;28;20087;-71
2022/05/05 06:34:05;;;;;;;13.27;6.15;;;10.50;99.90;;;;;;5032172;28;20501;-71
2022/05/05 06:36:31;;;;;;;14.43;7.30;;;10.60;99.90;;;;;;5032024;28;20069;-71
2022/05/05 06:38:56;;;;;;;15.43;7.53;;;10.60;99.90;;;;;;5015929;28;20033;-71
2022/05/05 06:41:22;;;;;;;12.07;7.38;;;10.70;99.90;;;;;;5031991;28;20046;-70
2022/05/05 06:43:48;;;;;;;14.18;7.22;;;10.70;99.90;;;;;;5015575;28;20048;-71
2022/05/05 06:46:14;;;;;;;18.13;7.32;;;10.80;99.90;;;;;;5031954;28;20056;-71
2022/05/05 06:48:41;;;;;;;14.20;7.80;;;10.80;99.90;;;;;;5031930;28;20095;-71
2022/05/05 06:51:06;;;;;;;14.43;7.60;;;10.90;99.90;;;;;;5032186;28;20045;-70
2022/05/05 06:53:32;;;;;;;17.23;7.55;;;11.10;99.90;;;;;;5031804;28;20452;-70
2022/05/05 06:55:58;;;;;;;13.20;7.30;;;11.20;99.90;;;;;;5031802;28;20044;-71
2022/05/05 06:58:25;;;;;;;15.40;8.05;;;11.30;99.90;;;;;;5031914;28;20072;-71
2022/05/05 07:03:34;;;;;;;16.02;7.93;;;11.60;99.90;;;;;;5032151;28;20041;-70
2022/05/05 07:06:01;;;;;;;19.98;7.53;;;11.70;99.90;;;;;;5031577;28;20094;-70
2022/05/05 07:08:27;;;;;;;17.75;7.68;;;11.80;99.90;;;;;;5031765;28;20501;-70
2022/05/05 07:10:53;;;;;;;16.55;7.57;;;11.90;99.90;;;;;;5031695;28;20038;-70
2022/05/05 07:13:25;;;;;;;17.52;7.18;;;12.00;99.90;;;;;;5015234;28;20112;-70
2022/05/05 07:15:51;;;;;;;18.45;7.28;;;12.10;99.90;;;;;;5032258;28;20466;-70
2022/05/05 07:18:17;;;;;;;14.48;7.10;;;12.30;99.90;;;;;;5035630;28;20042;-70
2022/05/05 07:20:44;;;;;;;15.77;6.60;;;12.40;99.90;;;;;;5019428;28;20489;-70
2022/05/05 07:23:14;;;;;;;15.68;6.40;;;12.50;99.90;;;;;;5035643;28;20044;-70
2022/05/05 07:25:41;;;;;;;15.43;7.05;;;12.60;99.90;;;;;;5035757;28;20087;-71
2022/05/05 07:28:07;;;;;;;12.38;6.30;;;12.70;99.90;;;;;;5035586;28;20498;-70
2022/05/05 07:30:33;;;;;;;12.90;5.95;;;12.80;99.90;;;;;;5035483;28;20045;-70
2022/05/05 07:32:59;;;;;;;15.48;5.80;;;12.90;99.90;;;;;;5035385;28;20060;-70
2022/05/05 07:35:25;;;;;;;15.00;6.18;;;13.10;99.90;;;;;;5035360;28;20038;-70
2022/05/05 07:37:50;;;;;;;14.40;5.10;;;13.20;99.90;;;;;;5035284;28;20037;-70
2022/05/05 07:40:16;;;;;;;16.42;5.45;;;13.30;99.90;;;;;;5035573;28;20056;-70
2022/05/05 07:42:42;;;;;;;16.10;4.20;;;13.50;99.90;;;;;;5035165;28;20521;-70
2022/05/05 07:45:08;;;;;;;16.95;5.28;;;13.60;99.90;;;;;;5035205;28;20041;-70
2022/05/05 07:47:34;;;;;;;12.65;4.63;;;13.60;99.90;;;;;;5035310;28;20034;-70
2022/05/05 07:50:01;;;;;;;10.30;4.28;;;13.70;99.90;;;;;;5035110;28;20044;-70
2022/05/05 07:52:27;;;;;;;12.18;4.82;;;13.80;99.90;;;;;;5018657;28;20095;-70
2022/05/05 07:54:53;;;;;;;9.98;3.90;;;13.80;99.90;;;;;;5034938;28;20049;-70
2022/05/05 07:57:20;;;;;;;14.20;5.60;;;13.90;99.90;;;;;;5034950;28;20050;-70
2022/05/05 07:59:47;;;;;;;11.60;4.30;;;14.00;99.90;;;;;;5034982;28;20047;-70
2022/05/05 08:02:16;;;;;;;12.30;3.70;;;14.00;99.90;;;;;;5035177;28;20046;-70
2022/05/05 08:04:42;;;;;;;13.00;3.78;;;14.20;99.60;;;;;;5035140;28;20523;-70
2022/05/05 08:07:09;;;;;;;8.55;3.50;;;14.30;99.40;;;;;;5034600;28;20104;-70
2022/05/05 08:09:34;;;;;;;10.05;3.97;;;14.40;97.60;;;;;;5018280;28;20045;-70
2022/05/05 08:12:00;;;;;;;9.75;4.28;;;14.50;97.80;;;;;;5035001;28;20052;-70
2022/05/05 08:14:27;;;;;;;9.95;3.63;;;14.70;98.50;;;;;;5034643;28;20507;-71
2022/05/05 08:16:53;;;;;;;10.10;3.53;;;14.70;97.00;;;;;;5034855;28;20072;-71
2022/05/05 08:19:20;;;;;;;11.45;3.72;;;14.70;95.30;;;;;;5034595;28;20452;-70
2022/05/05 08:21:46;;;;;;;11.75;4.07;;;14.70;95.60;;;;;;5034784;28;20041;-70
2022/05/05 08:29:40;;;;;;;9.00;3.60;;;14.90;95.40;;;;;;5033905;28;20045;-70
2022/05/05 08:32:06;;;;;;;7.95;3.55;;;15.00;95.90;;;;;;5034310;28;20041;-70
2022/05/05 08:34:31;;;;;;;9.20;3.50;;;15.20;94.80;;;;;;5034267;28;20077;-70
2022/05/05 08:36:57;;;;;;;8.38;3.33;;;15.30;93.70;;;;;;5034194;28;20048;-70
2022/05/05 08:39:22;;;;;;;10.57;3.75;;;15.50;94.40;;;;;;5034475;28;20033;-70
2022/05/05 08:41:49;;;;;;;12.35;4.32;;;15.70;93.10;;;;;;5034456;28;20494;-70
2022/05/05 08:44:14;;;;;;;10.90;3.92;;;15.80;93.10;;;;;;5034177;28;20044;-70
2022/05/05 08:46:40;;;;;;;9.82;3.88;;;16.00;94.10;;;;;;5017829;28;20041;-70
2022/05/05 08:49:07;;;;;;;8.48;3.80;;;16.10;94.20;;;;;;5034319;28;20049;-70
2022/05/05 08:51:44;;;;;;;10.25;4.20;;;16.00;90.90;;;;;;5034007;28;20131;-71
2022/05/05 08:54:16;;;;;;;10.90;4.00;;;16.10;89.10;;;;;;5033957;28;20041;-69
2022/05/05 08:56:43;;;;;;;10.93;4.57;;;16.10;88.50;;;;;;5033865;28;20048;-69
2022/05/05 08:59:09;;;;;;;8.57;4.53;;;16.20;88.90;;;;;;5034061;28;20033;-69
2022/05/05 09:01:38;;;;;;;9.63;5.20;;;16.40;84.50;;;;;;5033779;28;20072;-68
2022/05/05 09:04:06;;;;;;;11.82;4.70;;;16.60;80.70;;;;;;5033768;28;20409;-69
2022/05/05 09:06:49;;;;;;;8.00;4.00;;;16.70;79.90;;;;;;5033466;28;20051;-69
2022/05/05 09:09:24;;;;;;;8.75;4.55;;;16.80;76.40;;;;;;5033738;28;20136;-69
2022/05/05 09:12:14;;;;;;;8.93;4.60;;;16.90;78.60;;;;;;5034014;28;20501;-69
2022/05/05 09:14:45;;;;;;;10.40;4.97;;;17.10;75.70;;;;;;5033473;28;20383;-70
2022/05/05 09:17:29;;;;;;;10.45;5.18;;;17.30;75.70;;;;;;5033515;28;20045;-69
2022/05/05 09:19:56;;;;;;;10.63;4.90;;;17.60;73.90;;;;;;5033733;28;20033;-69
2022/05/05 09:22:24;;;;;;;10.77;5.03;;;17.70;70.40;;;;;;5033655;28;20045;-69
2022/05/05 09:24:51;;;;;;;13.63;5.45;;;17.90;69.30;;;;;;5016822;28;20563;-69
2022/05/05 09:27:23;;;;;;;11.38;5.50;;;18.10;70.30;;;;;;5033261;28;20041;-69
2022/05/05 09:29:59;;;;;;;14.25;6.20;;;18.30;67.50;;;;;;5033344;28;20050;-69
2022/05/05 09:32:35;;;;;;;10.25;5.53;;;18.40;65.40;;;;;;5033143;28;20056;-69
2022/05/05 09:35:08;;;;;;;9.75;4.53;;;18.40;65.10;;;;;;5035214;28;20037;-69
2022/05/05 09:37:34;;;;;;;12.40;5.07;;;18.60;65.80;;;;;;5033334;28;20037;-69
2022/05/05 09:40:02;;;;;;;11.77;4.57;;;18.60;65.10;;;;;;5032321;28;20037;-69
2022/05/05 09:42:38;;;;;;;10.07;5.20;;;18.80;66.10;;;;;;5033043;28;20037;-69
2022/05/05 09:45:24;;;;;;;14.23;5.50;;;19.00;61.90;;;;;;5032967;28;20049;-69
2022/05/05 09:48:04;;;;;;;10.23;5.32;;;19.20;63.70;;;;;;5033491;28;20067;-70
2022/05/05 09:50:32;;;;;;;12.65;5.30;;;19.40;60.30;;;;;;5033299;28;20128;-70
2022/05/05 09:58:37;;;;;;;12.25;5.43;;;19.40;59.30;;;;;;5032739;28;20517;-70
2022/05/05 10:01:13;;;;;;;9.85;5.63;;;19.50;61.10;;;;;;5016232;28;20151;-70
2022/05/05 10:04:00;;;;;;;9.52;5.18;;;19.50;60.70;;;;;;5032904;28;20147;-70
2022/05/05 10:06:43;;;;;;;11.88;5.60;;;19.50;63.40;;;;;;5032489;28;20037;-70
2022/05/05 10:09:11;;;;;;;11.27;5.15;;;19.40;61.40;;;;;;5032895;28;20037;-70
2022/05/05 10:11:38;;;;;;;8.88;5.45;;;19.40;62.90;;;;;;5032547;28;20046;-70
2022/05/05 10:14:08;;;;;;;10.38;5.47;;;19.40;62.80;;;;;;5032411;28;20048;-70
2022/05/05 10:16:36;;;;;;;9.98;5.63;;;19.40;61.70;;;;;;5032642;28;20040;-70
2022/05/05 10:19:04;;;;;;;8.65;5.28;;;19.30;62.50;;;;;;5032392;28;20481;-70
2022/05/05 10:21:49;;;;;;;10.13;5.10;;;19.20;62.70;;;;;;5032383;28;20121;-70
2022/05/05 10:24:15;;;;;;;6.70;4.55;;;19.30;61.30;;;;;;5032263;28;20072;-70
2022/05/05 10:26:41;;;;;;;8.48;5.53;;;19.10;61.20;;;;;;5032147;28;20045;-70
2022/05/05 10:29:33;;;;;;;7.50;5.15;;;19.10;61.00;;;;;;5032182;28;20451;-69
2022/05/05 10:32:18;;;;;;;8.90;4.95;;;19.30;59.10;;;;;;5032152;28;20045;-69
2022/05/05 10:34:45;;;;;;;9.50;5.22;;;19.30;57.90;;;;;;5032038;28;20378;-70
2022/05/05 10:37:13;;;;;;;10.93;5.13;;;19.40;62.00;;;;;;5032146;28;20121;-69
2022/05/05 10:39:58;;;;;;;9.50;5.38;;;19.60;62.90;;;;;;5032056;28;20042;-69
2022/05/05 10:42:30;;;;;;;8.52;4.63;;;19.70;58.10;;;;;;5032052;28;20041;-69
2022/05/05 10:45:10;;;;;;;5.30;3.92;;;19.90;58.50;;;;;;5015521;28;20455;-69
2022/05/05 10:48:06;;;;;;;7.30;4.07;;;20.00;57.90;;;;;;5031940;28;20130;-69
2022/05/05 10:50:56;;;;;;;9.80;5.53;;;20.10;56.60;;;;;;5031782;28;20175;-68
2022/05/05 10:53:41;;;;;;;8.80;4.30;;;20.10;56.20;;;;;;5015412;28;20398;-69
2022/05/05 10:56:19;;;;;;;6.80;4.60;;;20.20;55.80;;;;;;5031797;28;20408;-69
2022/05/05 10:59:24;;;;;;;9.00;5.43;;;20.30;55.90;;;;;;5031856;28;20401;-68
2022/05/05 11:01:59;;;;;;;8.45;6.03;;;20.20;55.00;;;;;;4956245;28;20484;-69
2022/05/05 11:04:30;;;;;;;8.85;6.05;;;20.20;55.40;;;;;;4956385;28;20042;-69
2022/05/05 11:07:23;;;;;;;10.13;6.13;;;20.10;54.80;;;;;;4997734;28;20084;-69
2022/05/05 11:09:49;;;;;;;9.80;5.95;;;20.30;55.80;;;;;;5015638;28;20132;-69
2022/05/05 11:12:23;;;;;;;8.60;5.25;;;20.40;56.00;;;;;;5031995;28;20556;-69
2022/05/05 11:23:47;;;;;;;7.87;5.20;;;21.10;52.60;;;;;;5032435;28;20037;-69
2022/05/05 11:26:17;;;;;;;6.90;4.65;;;21.20;53.40;;;;;;5031584;28;20046;-69
2022/05/05 11:28:44;;;;;;;9.85;5.60;;;21.40;52.70;;;;;;5031560;28;20045;-69
2022/05/05 11:31:19;;;;;;;7.43;5.10;;;21.60;53.00;;;;;;5031869;28;20094;-69
2022/05/05 11:33:50;;;;;;;13.70;5.15;;;21.60;54.30;;;;;;5015195;28;20038;-69
2022/05/05 11:36:15;;;;;;;11.90;5.53;;;21.80;54.60;;;;;;5031478;28;20497;-69
2022/05/05 11:38:41;;;;;;;12.55;5.20;;;21.90;54.00;;;;;;5031521;28;20091;-68
2022/05/05 11:41:07;;;;;;;9.73;5.40;;;22.00;53.40;;;;;;5015820;28;20030;-69
2022/05/05 11:46:19;;;;;;;8.05;5.07;;;22.20;52.50;;;;;;5031719;28;20045;-69
2022/05/05 11:48:53;;;;;;;7.57;5.10;;;22.30;50.50;;;;;;5031853;28;20050;-69
2022/05/05 11:51:27;;;;;;;9.13;4.72;;;22.30;51.20;;;;;;5031450;28;20045;-69
2022/05/05 11:54:14;;;;;;;12.25;5.63;;;22.50;51.50;;;;;;5031350;28;20175;-69
2022/05/05 11:56:46;;;;;;;7.68;4.93;;;22.90;51.50;;;;;;5031313;28;20041;-69
2022/05/05 12:02:15;;;;;;;10.40;5.40;;;22.90;48.80;;;;;;5031284;28;20414;-69
2022/05/05 12:04:53;;;;;;;10.38;5.28;;;22.90;49.00;;;;;;5034393;28;20052;-69
2022/05/05 12:07:20;;;;;;;6.28;4.40;;;22.80;49.50;;;;;;5034633;28;20443;-69
2022/05/05 12:09:48;;;;;;;9.02;4.78;;;22.90;48.90;;;;;;5035040;28;20049;-69
2022/05/05 12:12:18;;;;;;;6.35;3.90;;;22.90;48.00;;;;;;5034712;28;20045;-69
2022/05/05 12:14:47;;;;;;;8.20;4.32;;;22.80;50.40;;;;;;5034624;28;20406;-69
2022/05/05 12:17:16;;;;;;;10.00;5.20;;;22.80;50.30;;;;;;5018228;28;20029;-69
2022/05/05 12:20:09;;;;;;;8.80;5.40;;;22.70;49.20;;;;;;5034980;28;20042;-70
2022/05/05 12:22:40;;;;;;;8.73;4.88;;;22.60;49.10;;;;;;5031820;28;20072;-70
2022/05/05 12:25:12;;;;;;;11.50;5.53;;;22.70;51.30;;;;;;5034627;28;20048;-70
2022/05/05 12:27:38;;;;;;;10.85;5.00;;;22.80;50.40;;;;;;5034657;28;20131;-70
2022/05/05 12:30:05;;;;;;;10.82;5.47;;;22.80;50.90;;;;;;5034607;28;20179;-69
2022/05/05 12:32:31;;;;;;;9.48;5.40;;;22.60;50.10;;;;;;5036206;28;20041;-72
2022/05/05 12:35:10;;;;;;;9.50;5.50;;;22.40;50.40;;;;;;5035976;28;20041;-73
2022/05/05 12:37:39;;;;;;;10.85;5.47;;;22.30;50.00;;;;;;5035733;28;20038;-74
2022/05/05 12:40:06;;;;;;;8.32;5.47;;;22.40;50.80;;;;;;5036302;28;20064;-74
2022/05/05 12:42:48;;;;;;;9.68;5.13;;;22.60;50.00;;;;;;5036496;28;20045;-74
2022/05/05 12:45:26;;;;;;;9.60;5.40;;;22.80;50.90;;;;;;5019914;28;20045;-73
2022/05/05 12:47:54;;;;;;;8.48;5.18;;;22.80;50.20;;;;;;5036579;28;20045;-73
2022/05/05 12:50:34;;;;;;;8.48;4.85;;;22.80;49.10;;;;;;5019805;28;20099;-73
2022/05/05 13:01:22;;;;;;;8.32;4.32;;;22.70;49.80;;;;;;5035712;28;20497;-73
2022/05/05 13:03:48;;;;;;;8.63;4.47;;;22.80;50.50;;;;;;5019735;28;20038;-73
2022/05/05 13:06:14;;;;;;;10.07;5.22;;;22.90;50.60;;;;;;5035993;28;20122;-73
2022/05/05 13:08:40;;;;;;;7.78;4.50;;;22.90;50.60;;;;;;5036259;28;20033;-73
2022/05/05 13:11:05;;;;;;;8.15;3.97;;;22.90;50.70;;;;;;5035459;28;20513;-73
2022/05/05 13:13:31;;;;;;;7.15;4.03;;;23.00;50.20;;;;;;5035611;28;20081;-73
2022/05/05 13:15:57;;;;;;;8.15;4.22;;;22.90;49.60;;;;;;5035414;28;20037;-73
2022/05/05 13:18:23;;;;;;;7.53;3.55;;;22.90;49.00;;;;;;5035227;28;20088;-73
2022/05/05 13:20:48;;;;;;;6.85;4.13;;;22.80;49.20;;;;;;5018581;28;20040;-73
2022/05/05 13:23:14;;;;;;;6.45;4.35;;;22.70;49.30;;;;;;5035115;28;20091;-73
2022/05/05 13:25:40;;;;;;;6.35;4.20;;;22.50;49.60;;;;;;5034476;28;20124;-73
2022/05/05 13:28:07;;;;;;;7.60;3.80;;;22.50;49.70;;;;;;5034358;28;20037;-73
2022/05/05 13:30:32;;;;;;;6.28;3.92;;;22.30;49.50;;;;;;5033908;28;20079;-73
2022/05/05 13:32:58;;;;;;;9.10;4.72;;;22.20;49.40;;;;;;5017587;28;20065;-74
2022/05/05 13:35:24;;;;;;;8.20;4.28;;;22.20;49.30;;;;;;5034372;28;20048;-74
2022/05/05 13:37:49;;;;;;;5.13;3.95;;;22.20;49.00;;;;;;5034847;28;20413;-73
2022/05/05 13:40:15;;;;;;;6.70;4.00;;;22.30;49.60;;;;;;5034443;28;20033;-73
2022/05/05 13:42:40;;;;;;;8.02;4.30;;;22.40;49.30;;;;;;5017639;28;20132;-74